New Underwood, SD

11:50 PM MDT on April 30, 2017 (GMT -0600)
Prairie View Estates | | Change Station

Elev 3064 ft 44.11 °N, 103.07 °W | Updated 7 seconds ago

Mostly Cloudy
Mostly Cloudy
42.0 °F
Feels Like 42 °F
N
0.0
Wind Variable Wind from WSW
Gusts 0.0 mph

Today
High -- | Low -- °F
--% Chance of Precip.
Yesterday
High -- | Low -- °F
Precip. -- in
Pressure 29.84 in
Visibility 10.0 miles
Clouds Overcast 8500 ft
Windchill 42 °F
Dew Point 30 °F
Humidity 63%
Rainfall 0.00 in
Snow Depth Not available.
5:43 AM 7:54 PM
Waxing Crescent, 29% visible
METAR KRAP 010452Z 35006KT 10SM OVC085 07/M03 A2984 RMK AO2 SLP105 T00721028
Pressure 29.84 in
Visibility 10.0 miles
Clouds Overcast 8500 ft
Windchill 42 °F
Dew Point 30 °F
Humidity 63%
Rainfall 0.00 in
Snow Depth Not available.
5:43 AM 7:54 PM
Waxing Crescent, 29% visible
METAR KRAP 010452Z 35006KT 10SM OVC085 07/M03 A2984 RMK AO2 SLP105 T00721028

Get Severe Weather Alerts

Thanks for signing up!

Be on the lookout for a verification email in your inbox.

You'll start receiving the daily forecast at 8 AM.

×

10-Day Weather Forecast

Almanac

Astronomy

Apr. 30, 2017 Rise Set
Actual Time
Civil Twilight
Nautical Twilight
Astronomical Twilight
Moon
Length of Visible Light
Length of Day
Tomorrow will be .
, % of the Moon is Illuminated

Today's Extremes

State Highs State Lows

Community

WunderPhotos

WunderBlog® & News

Nearby

Air Quality

  Air Quality AQ Index Pollutant
Not available.

Snow Depth

Station Depth Elevation

Earthquake Activity

City Distance Mag. Time & Date
Minimum magnitude displayed is 2.5.

Coastal Water Temperatures

Place Temperature

Stations

Nearby Weather Stations

Station Location Temp. Windchill Dew Point Humidity Wind Precip. Elev Updated Type
                   

Watches & Warnings

There are currently no watches in effect.